createdAt,value
2019-01-03T00:01:13.952Z,3.30
2019-01-03T00:04:19.802Z,4.28
2019-01-03T00:07:15.598Z,4.37
2019-01-03T00:10:08.466Z,5.67
2019-01-03T00:12:54.665Z,5.10
2019-01-03T00:15:42.030Z,4.33
2019-01-03T00:18:44.510Z,4.97
2019-01-03T00:21:31.670Z,5.75
2019-01-03T00:24:17.871Z,3.50
2019-01-03T00:27:03.965Z,3.90
2019-01-03T00:29:54.045Z,5.92
2019-01-03T00:32:40.267Z,4.30
2019-01-03T00:35:30.544Z,4.53
2019-01-03T00:38:19.039Z,4.47
2019-01-03T00:41:06.517Z,4.97
2019-01-03T00:43:59.722Z,4.08
2019-01-03T00:46:47.040Z,4.42
2019-01-03T00:49:43.341Z,3.10
2019-01-03T00:52:29.843Z,4.03
2019-01-03T00:55:17.021Z,4.42
2019-01-03T00:58:07.489Z,4.00
2019-01-03T01:01:01.149Z,4.00
2019-01-03T01:03:47.047Z,5.67
2019-01-03T01:06:41.098Z,5.35
2019-01-03T01:09:33.922Z,4.83
2019-01-03T01:12:19.845Z,4.33
2019-01-03T01:15:06.587Z,4.12
2019-01-03T01:17:59.475Z,3.72
2019-01-03T01:20:45.628Z,3.75
2019-01-03T01:23:32.272Z,2.92
2019-01-03T01:26:18.030Z,3.58
2019-01-03T01:28:57.245Z,3.30
2019-01-03T01:31:50.395Z,2.58
2019-01-03T01:34:38.292Z,5.35
2019-01-03T01:37:24.426Z,5.12
2019-01-03T01:40:10.686Z,2.92
2019-01-03T01:42:58.327Z,5.45
2019-01-03T01:45:48.754Z,3.60
2019-01-03T01:48:34.581Z,3.80
2019-01-03T01:51:22.549Z,3.10
2019-01-03T01:54:12.387Z,4.60
2019-01-03T01:57:03.371Z,4.40
2019-01-03T01:59:59.746Z,5.50
2019-01-03T02:02:40.785Z,3.83
2019-01-03T02:05:33.969Z,3.23
2019-01-03T02:08:19.842Z,3.20
2019-01-03T02:11:06.949Z,4.90
2019-01-03T02:13:54.178Z,4.90
2019-01-03T02:16:40.490Z,5.42
2019-01-03T02:19:33.742Z,5.30
2019-01-03T02:22:34.696Z,3.42
2019-01-03T02:25:36.782Z,3.87
2019-01-03T02:28:24.345Z,4.45
2019-01-03T02:31:20.303Z,3.00
2019-01-03T02:34:06.606Z,4.70
2019-01-03T02:36:48.194Z,2.65
2019-01-03T02:39:44.286Z,4.05
2019-01-03T02:42:34.512Z,3.87
2019-01-03T02:45:20.427Z,3.58
2019-01-03T02:48:07.210Z,3.92
2019-01-03T02:51:00.944Z,3.20
2019-01-03T02:53:49.492Z,2.15
2019-01-03T02:56:52.285Z,4.30
2019-01-03T02:59:38.582Z,5.03
2019-01-03T03:02:25.653Z,5.97
2019-01-03T03:05:15.755Z,4.67
2019-01-03T03:08:15.066Z,5.55
2019-01-03T03:11:17.652Z,3.45
2019-01-03T03:14:05.822Z,3.65
2019-01-03T03:17:06.873Z,6.20
2019-01-03T03:19:45.169Z,3.40
2019-01-03T03:22:34.989Z,6.40
2019-01-03T03:25:40.618Z,3.87
2019-01-03T03:28:43.705Z,5.20
2019-01-03T03:31:28.167Z,5.73
2019-01-03T03:34:22.802Z,5.55
2019-01-03T03:37:12.881Z,6.00
2019-01-03T03:40:05.448Z,2.62
2019-01-03T03:42:50.767Z,3.55
2019-01-03T03:45:46.934Z,6.20
2019-01-03T03:48:34.074Z,4.30
2019-01-03T03:51:20.069Z,3.65
2019-01-03T03:54:06.061Z,3.55
2019-01-03T03:56:52.298Z,3.60
2019-01-03T03:59:42.827Z,2.30
2019-01-03T04:02:36.401Z,2.90
2019-01-03T04:05:35.721Z,4.12
2019-01-03T04:08:21.715Z,5.67
2019-01-03T04:11:17.998Z,5.28
2019-01-03T04:14:03.712Z,4.83
2019-01-03T04:16:58.175Z,3.75
2019-01-03T04:19:54.679Z,5.00
2019-01-03T04:22:41.794Z,3.08
2019-01-03T04:25:40.727Z,3.70
2019-01-03T04:28:30.700Z,5.78
2019-01-03T04:31:16.751Z,7.45
2019-01-03T04:34:08.047Z,5.75
2019-01-03T04:36:54.870Z,5.00
2019-01-03T04:39:41.245Z,5.72
2019-01-03T04:42:46.398Z,3.70
2019-01-03T04:45:24.238Z,5.40
2019-01-03T04:48:13.919Z,3.77
2019-01-03T04:51:03.312Z,4.78
2019-01-03T04:53:56.746Z,5.87
2019-01-03T04:56:42.750Z,4.95
2019-01-03T04:59:36.507Z,4.55
2019-01-03T05:02:26.047Z,8.03
2019-01-03T05:05:19.453Z,5.67
2019-01-03T05:08:06.834Z,6.85
2019-01-03T05:10:56.668Z,4.47
2019-01-03T05:13:43.106Z,6.17
2019-01-03T05:16:28.947Z,7.50
2019-01-03T05:19:19.649Z,4.08
2019-01-03T05:22:07.747Z,3.35
2019-01-03T05:25:10.127Z,4.53
2019-01-03T05:27:56.553Z,5.00
2019-01-03T05:30:42.673Z,5.43
2019-01-03T05:33:30.045Z,7.87
2019-01-03T05:36:20.285Z,3.58
2019-01-03T05:39:06.664Z,8.50
2019-01-03T05:41:52.701Z,6.45
2019-01-03T05:44:38.633Z,4.80
2019-01-03T05:47:23.861Z,4.17
2019-01-03T05:50:11.734Z,5.60
2019-01-03T05:52:48.764Z,4.37
2019-01-03T05:55:51.466Z,3.77
2019-01-03T05:58:37.854Z,4.55
2019-01-03T06:01:28.876Z,3.90
2019-01-03T06:04:34.774Z,6.60
2019-01-03T06:07:39.971Z,4.90
2019-01-03T06:10:36.191Z,4.20
2019-01-03T06:13:29.576Z,4.20
2019-01-03T06:16:15.679Z,4.40
2019-01-03T06:19:08.705Z,5.33
2019-01-03T06:21:54.697Z,6.35
2019-01-03T06:24:42.247Z,4.47
2019-01-03T06:27:28.586Z,6.15
2019-01-03T06:30:18.725Z,8.98
2019-01-03T06:33:05.942Z,4.30
2019-01-03T06:35:56.251Z,4.45
2019-01-03T06:38:59.181Z,4.83
2019-01-03T06:41:42.346Z,5.10
2019-01-03T06:44:25.574Z,4.67
2019-01-03T06:47:27.429Z,3.90
2019-01-03T06:50:13.639Z,2.80
2019-01-03T06:53:10.198Z,3.75
2019-01-03T06:55:56.642Z,3.77
2019-01-03T06:58:52.921Z,4.08
2019-01-03T07:01:53.694Z,4.12
2019-01-03T07:04:39.906Z,5.87
2019-01-03T07:07:32.666Z,5.00
2019-01-03T07:10:25.689Z,5.70
2019-01-03T07:13:28.508Z,5.97
2019-01-03T07:16:16.034Z,6.17
2019-01-03T07:19:05.977Z,4.60
2019-01-03T07:21:53.650Z,5.47
2019-01-03T07:24:58.006Z,3.80
2019-01-03T07:27:44.741Z,3.87
2019-01-03T07:30:30.874Z,5.45
2019-01-03T07:33:20.873Z,8.63
2019-01-03T07:36:19.962Z,13.90
2019-01-03T07:39:19.588Z,5.60
2019-01-03T07:42:15.950Z,4.20
2019-01-03T07:45:12.586Z,4.90
2019-01-03T07:48:12.004Z,4.90
2019-01-03T07:51:08.752Z,5.03
2019-01-03T07:53:54.638Z,5.65
2019-01-03T07:56:54.142Z,3.87
2019-01-03T07:59:53.715Z,4.53
2019-01-03T08:02:46.880Z,4.70
2019-01-03T08:05:37.793Z,3.10
2019-01-03T08:08:34.381Z,4.40
2019-01-03T08:11:20.390Z,4.28
2019-01-03T08:14:11.767Z,3.93
2019-01-03T08:17:11.043Z,2.90
2019-01-03T08:20:01.114Z,3.52
2019-01-03T08:22:48.715Z,7.28
2019-01-03T08:25:34.524Z,7.15
2019-01-03T08:28:20.366Z,6.08
2019-01-03T08:31:19.702Z,2.92
2019-01-03T08:34:07.973Z,4.72
2019-01-03T08:37:08.722Z,4.35
2019-01-03T08:40:18.977Z,3.12
2019-01-03T08:43:33.560Z,4.05
2019-01-03T08:46:35.570Z,3.90
2019-01-03T08:49:38.061Z,4.33
2019-01-03T08:52:21.869Z,6.25
2019-01-03T08:55:32.273Z,3.17
2019-01-03T08:58:31.690Z,8.35
2019-01-03T09:01:12.337Z,4.50
2019-01-03T09:04:15.466Z,4.42
2019-01-03T09:07:15.796Z,5.03
2019-01-03T09:10:02.093Z,3.50
2019-01-03T09:12:58.943Z,3.50
2019-01-03T09:15:45.148Z,3.67
2019-01-03T09:18:30.966Z,3.60
2019-01-03T09:21:18.189Z,5.00
2019-01-03T09:24:05.780Z,6.37
2019-01-03T09:26:48.465Z,6.90
2019-01-03T09:29:50.893Z,6.30
2019-01-03T09:32:36.362Z,3.30
2019-01-03T09:35:33.034Z,3.85
2019-01-03T09:38:23.078Z,5.70
2019-01-03T09:41:09.109Z,3.77
2019-01-03T09:44:05.613Z,3.77
2019-01-03T09:46:35.185Z,3.70
2019-01-03T09:49:03.597Z,5.22
2019-01-03T09:51:31.730Z,9.97
2019-01-03T09:53:59.827Z,10.57
2019-01-03T09:56:28.534Z,13.22
2019-01-03T09:58:57.073Z,14.33
2019-01-03T10:01:25.253Z,11.28
2019-01-03T10:03:54.225Z,8.50
2019-01-03T10:06:23.074Z,9.80
2019-01-03T10:08:51.486Z,18.30
2019-01-03T10:11:20.554Z,10.35
2019-01-03T10:13:48.937Z,9.45
2019-01-03T10:16:17.405Z,7.12
2019-01-03T10:18:45.622Z,8.00
2019-01-03T10:21:13.731Z,5.53
2019-01-03T10:23:42.177Z,6.35
2019-01-03T10:26:10.686Z,10.05
2019-01-03T10:28:39.877Z,4.83
2019-01-03T10:31:08.564Z,5.87
2019-01-03T10:33:37.401Z,6.62
2019-01-03T10:36:05.505Z,5.75
2019-01-03T10:38:34.818Z,6.67
2019-01-03T10:41:03.946Z,4.00
2019-01-03T10:43:32.058Z,4.47
2019-01-03T10:46:00.274Z,6.17
2019-01-03T10:48:29.103Z,6.97
2019-01-03T10:50:57.274Z,5.45
2019-01-03T10:53:25.493Z,6.12
2019-01-03T10:55:53.913Z,6.80
2019-01-03T10:58:22.202Z,6.10
2019-01-03T11:00:50.469Z,6.53
2019-01-03T11:03:18.974Z,5.53
2019-01-03T11:05:47.826Z,6.55
2019-01-03T11:08:16.201Z,6.37
2019-01-03T11:10:44.372Z,5.75
2019-01-03T11:13:12.650Z,6.50
2019-01-03T11:15:41.725Z,8.23
2019-01-03T11:18:09.737Z,7.37
2019-01-03T11:20:38.056Z,7.75
2019-01-03T11:23:06.256Z,6.25
2019-01-03T11:25:35.264Z,6.67
2019-01-03T11:28:03.949Z,8.50
2019-01-03T11:30:32.694Z,5.20
2019-01-03T11:33:01.219Z,7.70
2019-01-03T11:35:29.868Z,6.90
2019-01-03T11:37:58.065Z,5.85
2019-01-03T11:40:26.550Z,5.05
2019-01-03T11:42:54.925Z,6.92
2019-01-03T11:45:24.282Z,8.05
2019-01-03T11:47:53.677Z,5.90
2019-01-03T11:50:23.665Z,7.00
2019-01-03T11:52:53.464Z,6.97
2019-01-03T11:55:21.943Z,4.90
2019-01-03T11:57:50.712Z,6.05
2019-01-03T12:00:20.979Z,8.98
2019-01-03T12:02:50.448Z,10.07
2019-01-03T12:05:18.835Z,7.78
2019-01-03T12:07:47.629Z,6.95
2019-01-03T12:10:16.006Z,9.43
2019-01-03T12:12:45.221Z,8.63
2019-01-03T12:15:13.370Z,6.20
2019-01-03T12:17:41.562Z,5.60
2019-01-03T12:20:10.769Z,5.70
2019-01-03T12:22:39.125Z,9.18
2019-01-03T12:25:07.424Z,6.65
2019-01-03T12:27:36.335Z,7.28
2019-01-03T12:30:05.173Z,6.55
2019-01-03T12:32:33.794Z,6.53
2019-01-03T12:35:02.325Z,10.35
2019-01-03T12:37:30.537Z,7.17
2019-01-03T12:40:00.239Z,8.17
2019-01-03T12:42:30.252Z,6.53
2019-01-03T12:44:58.327Z,6.72
2019-01-03T12:47:27.178Z,8.43
2019-01-03T12:49:55.990Z,9.60
2019-01-03T12:52:24.190Z,8.88
2019-01-03T12:54:52.261Z,9.40
2019-01-03T12:57:20.650Z,14.30
2019-01-03T12:59:49.270Z,8.93
2019-01-03T13:02:17.395Z,8.15
2019-01-03T13:04:45.589Z,7.37
2019-01-03T13:07:13.705Z,6.95
2019-01-03T13:09:42.293Z,8.83
2019-01-03T13:12:10.400Z,10.32
2019-01-03T13:14:38.575Z,8.65
2019-01-03T13:17:07.277Z,11.50
2019-01-03T13:19:36.146Z,16.20
2019-01-03T13:22:04.366Z,7.80
2019-01-03T13:24:32.433Z,9.87
2019-01-03T13:27:00.691Z,8.63
2019-01-03T13:29:29.140Z,13.55
2019-01-03T13:31:57.455Z,8.08
2019-01-03T13:34:26.637Z,7.87
2019-01-03T13:36:55.303Z,7.27
2019-01-03T13:39:23.618Z,10.25
2019-01-03T13:41:51.792Z,8.00
2019-01-03T13:44:20.371Z,8.83
2019-01-03T13:46:48.538Z,8.65
2019-01-03T13:49:17.421Z,7.72
2019-01-03T13:51:45.499Z,7.00
2019-01-03T13:54:13.969Z,8.50
2019-01-03T13:56:42.561Z,11.75
2019-01-03T13:59:10.665Z,10.58
2019-01-03T14:01:39.092Z,6.47
2019-01-03T14:04:07.979Z,6.03
2019-01-03T14:06:36.182Z,6.60
2019-01-03T14:09:05.801Z,7.33
2019-01-03T14:11:35.927Z,9.13
2019-01-03T14:14:04.364Z,7.28
2019-01-03T14:16:32.963Z,6.33
2019-01-03T14:19:02.029Z,7.30
2019-01-03T14:21:30.571Z,8.58
2019-01-03T14:23:58.582Z,9.75
2019-01-03T14:26:27.162Z,5.72
2019-01-03T14:28:55.906Z,8.20
2019-01-03T14:31:24.075Z,5.37
2019-01-03T14:33:52.592Z,6.03
2019-01-03T14:36:20.616Z,8.98
2019-01-03T14:38:48.954Z,13.45
2019-01-03T14:41:17.337Z,7.47
2019-01-03T14:43:45.457Z,8.20
2019-01-03T14:46:14.036Z,6.25
2019-01-03T14:48:43.229Z,6.97
2019-01-03T14:51:11.722Z,10.87
2019-01-03T14:53:39.953Z,9.98
2019-01-03T14:56:08.701Z,8.75
2019-01-03T14:58:36.765Z,9.63
2019-01-03T15:01:05.350Z,8.60
2019-01-03T15:03:33.922Z,7.45
2019-01-03T15:06:01.950Z,9.80
2019-01-03T15:08:30.185Z,6.28
2019-01-03T15:10:58.649Z,9.88
2019-01-03T15:13:26.873Z,9.58
2019-01-03T15:15:55.265Z,7.47
2019-01-03T15:18:23.402Z,9.50
2019-01-03T15:20:51.413Z,8.00
2019-01-03T15:23:20.035Z,6.58
2019-01-03T15:25:48.513Z,8.03
2019-01-03T15:28:16.534Z,8.08
2019-01-03T15:30:44.865Z,7.55
2019-01-03T15:33:13.713Z,9.45
2019-01-03T15:35:42.298Z,7.75
2019-01-03T15:38:10.457Z,5.90
2019-01-03T15:40:38.892Z,7.37
2019-01-03T15:43:07.373Z,8.10
2019-01-03T15:45:35.409Z,6.83
2019-01-03T15:48:04.135Z,5.30
2019-01-03T15:50:33.250Z,8.63
2019-01-03T15:53:01.770Z,5.87
2019-01-03T15:55:29.817Z,7.03
2019-01-03T15:57:59.906Z,8.83
2019-01-03T16:00:28.695Z,6.45
2019-01-03T16:02:56.785Z,9.33
2019-01-03T16:05:25.001Z,7.87
2019-01-03T16:07:53.380Z,6.40
2019-01-03T16:10:21.530Z,7.12
2019-01-03T16:12:50.145Z,8.15
2019-01-03T16:15:18.966Z,7.13
2019-01-03T16:17:47.257Z,28.52
2019-01-03T16:20:15.362Z,11.30
2019-01-03T16:22:44.536Z,6.50
2019-01-03T16:25:13.132Z,8.08
2019-01-03T16:27:41.617Z,7.43
2019-01-03T16:30:10.161Z,6.20
2019-01-03T16:32:38.280Z,7.00
2019-01-03T16:35:06.432Z,5.95
2019-01-03T16:37:35.624Z,7.12
2019-01-03T16:40:03.662Z,8.98
2019-01-03T16:42:39.485Z,5.92
2019-01-03T16:45:08.328Z,7.28
2019-01-03T16:47:36.761Z,6.67
2019-01-03T16:50:05.303Z,5.80
2019-01-03T16:52:33.362Z,7.83
2019-01-03T16:55:02.282Z,5.75
2019-01-03T16:57:30.440Z,5.92
2019-01-03T16:59:58.871Z,5.40
2019-01-03T17:02:27.253Z,5.17
2019-01-03T17:04:55.329Z,6.70
2019-01-03T17:07:23.859Z,8.73
2019-01-03T17:09:53.364Z,5.50
2019-01-03T17:12:21.402Z,7.05
2019-01-03T17:14:49.758Z,4.65
2019-01-03T17:17:17.872Z,8.53
2019-01-03T17:19:46.530Z,4.83
2019-01-03T17:22:14.751Z,6.33
2019-01-03T17:24:42.925Z,8.65
2019-01-03T17:27:11.013Z,5.62
2019-01-03T17:29:39.171Z,5.90
2019-01-03T17:32:07.442Z,6.83
2019-01-03T17:34:36.022Z,6.20
2019-01-03T17:37:04.185Z,7.20
2019-01-03T17:39:32.342Z,5.05
2019-01-03T17:42:00.657Z,6.17
2019-01-03T17:44:28.979Z,6.37
2019-01-03T17:46:57.202Z,6.65
2019-01-03T17:49:26.878Z,4.75
2019-01-03T17:51:55.001Z,9.58
2019-01-03T17:54:23.362Z,6.65
2019-01-03T17:56:51.755Z,8.17
2019-01-03T17:59:20.117Z,7.92
2019-01-03T18:01:48.295Z,10.65
2019-01-03T18:04:16.729Z,10.50
2019-01-03T18:06:45.213Z,10.60
2019-01-03T18:09:13.931Z,9.98
2019-01-03T18:11:42.218Z,12.00
2019-01-03T18:14:10.929Z,8.43
2019-01-03T18:16:39.097Z,7.97
2019-01-03T18:19:07.258Z,8.55
2019-01-03T18:21:35.427Z,8.35
2019-01-03T18:24:04.282Z,7.67
2019-01-03T18:26:32.327Z,16.90
2019-01-03T18:29:01.034Z,11.65
2019-01-03T18:31:29.189Z,9.58
2019-01-03T18:33:57.718Z,9.55
2019-01-03T18:36:25.817Z,8.30
2019-01-03T18:38:54.862Z,12.03
2019-01-03T18:41:23.303Z,9.48
2019-01-03T18:43:51.914Z,13.90
2019-01-03T18:46:20.202Z,13.20
2019-01-03T18:48:48.625Z,11.90
2019-01-03T18:51:17.327Z,11.28
2019-01-03T18:53:45.581Z,10.00
2019-01-03T18:56:14.997Z,9.53
2019-01-03T18:58:44.971Z,11.05
2019-01-03T19:01:13.408Z,10.03
2019-01-03T19:03:42.137Z,10.20
2019-01-03T19:06:10.579Z,9.30
2019-01-03T19:08:39.094Z,11.80
2019-01-03T19:11:07.577Z,11.13
2019-01-03T19:13:36.202Z,8.50
2019-01-03T19:16:04.969Z,8.53
2019-01-03T19:18:33.081Z,8.17
2019-01-03T19:21:01.629Z,8.85
2019-01-03T19:23:30.373Z,10.70
2019-01-03T19:25:59.118Z,8.68
2019-01-03T19:28:27.562Z,9.20
2019-01-03T19:30:56.149Z,11.40
2019-01-03T19:33:24.736Z,10.75
2019-01-03T19:35:52.965Z,7.65
2019-01-03T19:38:22.227Z,11.55
2019-01-03T19:40:50.647Z,11.53
2019-01-03T19:43:18.706Z,10.72
2019-01-03T19:45:46.827Z,37.53
2019-01-03T19:48:15.358Z,44.30
2019-01-03T19:50:43.533Z,31.68
2019-01-03T19:53:11.736Z,16.80
2019-01-03T19:55:39.823Z,15.37
2019-01-03T19:58:07.987Z,12.85
2019-01-03T20:00:36.062Z,9.00
2019-01-03T20:03:08.995Z,12.03
2019-01-03T20:05:44.047Z,11.68
2019-01-03T20:08:12.733Z,12.18
2019-01-03T20:10:40.828Z,13.90
2019-01-03T20:13:10.228Z,12.47
2019-01-03T20:15:38.383Z,14.87
2019-01-03T20:18:06.890Z,13.23
2019-01-03T20:20:35.145Z,13.70
2019-01-03T20:23:03.603Z,15.30
2019-01-03T20:25:34.596Z,17.07
2019-01-03T20:28:03.249Z,14.00
2019-01-03T20:30:31.944Z,17.00
2019-01-03T20:33:00.892Z,15.13
2019-01-03T20:35:29.096Z,16.07
2019-01-03T20:37:57.302Z,15.75
2019-01-03T20:40:25.890Z,22.30
2019-01-03T20:42:53.991Z,27.75
2019-01-03T20:45:22.482Z,43.35
2019-01-03T20:47:51.637Z,17.30
2019-01-03T20:50:20.217Z,29.20
2019-01-03T20:52:48.483Z,18.73
2019-01-03T20:55:16.602Z,14.40
2019-01-03T20:57:45.092Z,14.05
2019-01-03T21:00:14.405Z,16.37
2019-01-03T21:02:42.513Z,14.90
2019-01-03T21:05:10.686Z,14.60
2019-01-03T21:07:38.733Z,14.95
2019-01-03T21:10:07.724Z,17.23
2019-01-03T21:12:35.910Z,16.30
2019-01-03T21:15:04.773Z,16.73
2019-01-03T21:17:33.584Z,16.65
2019-01-03T21:20:02.005Z,17.37
2019-01-03T21:22:30.116Z,16.35
2019-01-03T21:24:58.297Z,14.73
2019-01-03T21:27:26.345Z,16.42
2019-01-03T21:29:54.420Z,13.95
2019-01-03T21:32:22.953Z,17.27
2019-01-03T21:34:51.443Z,17.30
2019-01-03T21:37:19.716Z,17.05
2019-01-03T21:39:47.907Z,16.12
2019-01-03T21:42:16.337Z,18.95
2019-01-03T21:44:44.750Z,16.17
2019-01-03T21:47:13.136Z,17.17
2019-01-03T21:49:41.672Z,17.23
2019-01-03T21:52:09.905Z,19.92
2019-01-03T21:54:38.274Z,21.45
2019-01-03T21:57:06.336Z,21.35
2019-01-03T21:59:34.790Z,16.77
2019-01-03T22:02:02.969Z,19.85
2019-01-03T22:04:32.909Z,18.48
2019-01-03T22:07:02.926Z,18.40
2019-01-03T22:09:31.199Z,34.85
2019-01-03T22:11:59.703Z,28.83
2019-01-03T22:14:27.745Z,38.73
2019-01-03T22:16:56.333Z,27.52
2019-01-03T22:19:24.518Z,28.52
2019-01-03T22:21:52.725Z,24.63
2019-01-03T22:24:22.780Z,28.73
2019-01-03T22:26:51.323Z,17.45
2019-01-03T22:29:19.465Z,18.32
2019-01-03T22:31:48.077Z,15.40
2019-01-03T22:34:16.333Z,17.35
2019-01-03T22:36:44.423Z,16.62
2019-01-03T22:39:12.621Z,16.80
2019-01-03T22:41:40.755Z,13.75
2019-01-03T22:44:09.354Z,14.47
2019-01-03T22:46:38.047Z,15.23
2019-01-03T22:49:06.668Z,18.23
2019-01-03T22:51:34.782Z,20.10
2019-01-03T22:54:03.321Z,15.23
2019-01-03T22:56:31.910Z,13.43
2019-01-03T22:59:00.535Z,13.60
2019-01-03T23:01:28.865Z,14.53
2019-01-03T23:03:57.389Z,14.90
2019-01-03T23:06:25.478Z,15.13
2019-01-03T23:08:53.904Z,14.23
2019-01-03T23:11:23.251Z,14.28
2019-01-03T23:13:51.843Z,16.60
2019-01-03T23:16:19.905Z,14.03
2019-01-03T23:18:48.466Z,14.98
2019-01-03T23:21:18.304Z,16.93
2019-01-03T23:23:46.949Z,16.67
2019-01-03T23:26:15.426Z,14.90
2019-01-03T23:28:43.569Z,14.47
2019-01-03T23:31:11.585Z,18.98
2019-01-03T23:33:39.737Z,16.42
2019-01-03T23:36:08.166Z,19.07
2019-01-03T23:38:36.598Z,16.67
2019-01-03T23:41:05.081Z,18.25
2019-01-03T23:43:33.882Z,18.12
2019-01-03T23:46:02.528Z,16.23
2019-01-03T23:48:30.986Z,19.62
2019-01-03T23:50:59.263Z,22.73
2019-01-03T23:53:27.453Z,16.70
2019-01-03T23:55:57.721Z,17.65
2019-01-03T23:58:25.797Z,16.40
